Terminal Aerodrome Forecast
Issued by NWS

Home | Current Version | Previous Version | Text Only | Print | Product List | Glossary On
Versions: 1 2 3 4 5 6 7 8 9 10 11 12 13 14 15 16 17 18 19 20 21 22
000
FTUS44 KMAF 201100
TAFINK
TAF
KINK 201130Z 2012/2112 11006KT P6SM SCT007 BKN028
      TEMPO 2012/2014 BKN007
     FM201500 12010KT P6SM BKN025
      TEMPO 2017/2021 4SM TSRA BR BKN030CB
     FM202100 13010KT P6SM BKN040
      TEMPO 2021/2101 5SM TSRA BR BKN030CB=

USA.gov is the U.S. government's official web portal to all federal, state and local government web resources and services.